sensor_id;sensor_type;location;lat;lon;timestamp;pressure;altitude;pressure_sealevel;temperature;humidity
7321;BME280;3701;49.346;8.798;2022-07-17T00:01:18;101144.91;;;12.94;79.69
7321;BME280;3701;49.346;8.798;2022-07-17T00:03:46;101148.00;;;13.00;80.26
7321;BME280;3701;49.346;8.798;2022-07-17T00:06:13;101142.09;;;12.82;80.10
7321;BME280;3701;49.346;8.798;2022-07-17T00:08:38;101146.13;;;13.02;80.50
7321;BME280;3701;49.346;8.798;2022-07-17T00:11:06;101142.91;;;12.54;80.90
7321;BME280;3701;49.346;8.798;2022-07-17T00:13:31;101135.50;;;12.46;81.58
7321;BME280;3701;49.346;8.798;2022-07-17T00:15:56;101137.34;;;12.75;82.01
7321;BME280;3701;49.346;8.798;2022-07-17T00:18:24;101146.94;;;12.74;81.69
7321;BME280;3701;49.346;8.798;2022-07-17T00:20:52;101143.09;;;12.51;81.65
7321;BME280;3701;49.346;8.798;2022-07-17T00:23:17;101136.75;;;12.69;81.88
7321;BME280;3701;49.346;8.798;2022-07-17T00:25:43;101132.56;;;12.37;81.40
7321;BME280;3701;49.346;8.798;2022-07-17T00:28:09;101149.19;;;12.21;83.50
7321;BME280;3701;49.346;8.798;2022-07-17T00:30:34;101141.16;;;11.94;83.24
7321;BME280;3701;49.346;8.798;2022-07-17T00:33:03;101135.50;;;12.46;84.14
7321;BME280;3701;49.346;8.798;2022-07-17T00:35:28;101144.41;;;12.58;82.78
7321;BME280;3701;49.346;8.798;2022-07-17T00:37:54;101145.72;;;12.51;82.72
7321;BME280;3701;49.346;8.798;2022-07-17T00:40:26;101144.25;;;12.61;82.54
7321;BME280;3701;49.346;8.798;2022-07-17T00:42:53;101140.75;;;12.46;82.29
7321;BME280;3701;49.346;8.798;2022-07-17T00:45:23;101144.00;;;12.35;82.74
7321;BME280;3701;49.346;8.798;2022-07-17T00:48:04;101130.97;;;12.20;82.42
7321;BME280;3701;49.346;8.798;2022-07-17T00:50:40;101152.50;;;12.09;83.30
7321;BME280;3701;49.346;8.798;2022-07-17T00:53:07;101151.94;;;11.88;83.39
7321;BME280;3701;49.346;8.798;2022-07-17T00:55:32;101141.25;;;11.92;84.20
7321;BME280;3701;49.346;8.798;2022-07-17T00:58:03;101145.28;;;11.98;84.39
7321;BME280;3701;49.346;8.798;2022-07-17T01:00:29;101152.28;;;11.97;84.50
7321;BME280;3701;49.346;8.798;2022-07-17T01:02:57;101144.25;;;11.85;83.93
7321;BME280;3701;49.346;8.798;2022-07-17T01:05:23;101135.13;;;11.92;84.07
7321;BME280;3701;49.346;8.798;2022-07-17T01:07:49;101131.06;;;12.02;84.77
7321;BME280;3701;49.346;8.798;2022-07-17T01:10:17;101126.50;;;12.06;84.43
7321;BME280;3701;49.346;8.798;2022-07-17T01:12:45;101133.59;;;12.04;84.02
7321;BME280;3701;49.346;8.798;2022-07-17T01:15:14;101135.13;;;12.08;84.11
7321;BME280;3701;49.346;8.798;2022-07-17T01:17:40;101134.47;;;12.04;84.12
7321;BME280;3701;49.346;8.798;2022-07-17T01:20:12;101132.00;;;12.01;84.03
7321;BME280;3701;49.346;8.798;2022-07-17T01:22:47;101120.19;;;11.78;84.41
7321;BME280;3701;49.346;8.798;2022-07-17T01:25:19;101130.44;;;11.67;84.35
7321;BME280;3701;49.346;8.798;2022-07-17T01:27:45;101137.84;;;11.74;84.92
7321;BME280;3701;49.346;8.798;2022-07-17T01:30:17;101141.63;;;11.37;85.21
7321;BME280;3701;49.346;8.798;2022-07-17T01:32:43;101140.03;;;11.50;86.39
7321;BME280;3701;49.346;8.798;2022-07-17T01:35:10;101131.59;;;11.45;86.00
7321;BME280;3701;49.346;8.798;2022-07-17T01:37:39;101134.97;;;11.47;86.18
7321;BME280;3701;49.346;8.798;2022-07-17T01:40:10;101133.28;;;11.62;85.45
7321;BME280;3701;49.346;8.798;2022-07-17T01:42:38;101133.47;;;11.43;85.48
7321;BME280;3701;49.346;8.798;2022-07-17T01:45:07;101131.25;;;11.35;85.92
7321;BME280;3701;49.346;8.798;2022-07-17T01:47:35;101128.41;;;10.91;85.75
7321;BME280;3701;49.346;8.798;2022-07-17T01:50:01;101143.72;;;11.14;87.45
7321;BME280;3701;49.346;8.798;2022-07-17T01:52:27;101138.25;;;11.19;87.14
7321;BME280;3701;49.346;8.798;2022-07-17T01:54:57;101135.22;;;11.27;87.26
7321;BME280;3701;49.346;8.798;2022-07-17T01:57:23;101151.59;;;11.30;86.52
7321;BME280;3701;49.346;8.798;2022-07-17T01:59:48;101140.22;;;10.98;85.60
7321;BME280;3701;49.346;8.798;2022-07-17T02:02:16;101147.09;;;11.16;86.91
7321;BME280;3701;49.346;8.798;2022-07-17T02:04:42;101144.38;;;11.02;86.81
7321;BME280;3701;49.346;8.798;2022-07-17T02:07:08;101141.88;;;10.83;86.81
7321;BME280;3701;49.346;8.798;2022-07-17T02:09:34;101136.97;;;10.77;87.41
7321;BME280;3701;49.346;8.798;2022-07-17T02:12:00;101144.03;;;11.08;87.99
7321;BME280;3701;49.346;8.798;2022-07-17T02:14:25;101134.19;;;11.13;87.48
7321;BME280;3701;49.346;8.798;2022-07-17T02:16:54;101146.69;;;10.91;87.10
7321;BME280;3701;49.346;8.798;2022-07-17T02:19:22;101136.03;;;11.11;87.43
7321;BME280;3701;49.346;8.798;2022-07-17T02:21:47;101137.53;;;10.99;86.90
7321;BME280;3701;49.346;8.798;2022-07-17T02:24:15;101136.63;;;11.16;87.13
7321;BME280;3701;49.346;8.798;2022-07-17T02:26:43;101133.19;;;11.16;86.93
7321;BME280;3701;49.346;8.798;2022-07-17T02:29:08;101131.94;;;11.23;87.00
7321;BME280;3701;49.346;8.798;2022-07-17T02:31:36;101124.00;;;11.25;87.29
7321;BME280;3701;49.346;8.798;2022-07-17T02:34:01;101126.56;;;10.93;86.13
7321;BME280;3701;49.346;8.798;2022-07-17T02:36:29;101125.63;;;10.94;86.91
7321;BME280;3701;49.346;8.798;2022-07-17T02:38:57;101126.28;;;10.81;86.62
7321;BME280;3701;49.346;8.798;2022-07-17T02:41:23;101128.94;;;10.97;87.40
7321;BME280;3701;49.346;8.798;2022-07-17T02:43:50;101132.66;;;10.76;87.09
7321;BME280;3701;49.346;8.798;2022-07-17T02:46:18;101121.25;;;10.94;87.84
7321;BME280;3701;49.346;8.798;2022-07-17T02:48:46;101123.69;;;10.97;87.66
7321;BME280;3701;49.346;8.798;2022-07-17T02:51:12;101120.63;;;10.73;86.75
7321;BME280;3701;49.346;8.798;2022-07-17T02:53:37;101130.50;;;10.84;87.37
7321;BME280;3701;49.346;8.798;2022-07-17T02:56:05;101117.84;;;10.59;86.87
7321;BME280;3701;49.346;8.798;2022-07-17T02:58:33;101133.09;;;10.51;87.58
7321;BME280;3701;49.346;8.798;2022-07-17T03:01:00;101126.53;;;10.42;88.65
7321;BME280;3701;49.346;8.798;2022-07-17T03:03:26;101121.44;;;10.40;88.12
7321;BME280;3701;49.346;8.798;2022-07-17T03:05:51;101119.25;;;10.48;88.09
7321;BME280;3701;49.346;8.798;2022-07-17T03:08:16;101120.19;;;10.47;87.79
7321;BME280;3701;49.346;8.798;2022-07-17T03:10:42;101125.53;;;10.62;88.20
7321;BME280;3701;49.346;8.798;2022-07-17T03:13:07;101126.31;;;10.46;88.05
7321;BME280;3701;49.346;8.798;2022-07-17T03:15:35;101124.41;;;10.33;88.09
7321;BME280;3701;49.346;8.798;2022-07-17T03:18:03;101119.22;;;10.14;88.49
7321;BME280;3701;49.346;8.798;2022-07-17T03:20:28;101117.94;;;10.22;89.90
7321;BME280;3701;49.346;8.798;2022-07-17T03:23:00;101123.56;;;10.32;89.54
7321;BME280;3701;49.346;8.798;2022-07-17T03:25:28;101129.16;;;10.42;89.06
7321;BME280;3701;49.346;8.798;2022-07-17T03:27:54;101118.47;;;10.64;88.67
7321;BME280;3701;49.346;8.798;2022-07-17T03:30:24;101107.00;;;10.14;87.26
7321;BME280;3701;49.346;8.798;2022-07-17T03:32:49;101119.22;;;10.14;88.32
7321;BME280;3701;49.346;8.798;2022-07-17T03:35:15;101107.84;;;9.97;89.06
7321;BME280;3701;49.346;8.798;2022-07-17T03:37:42;101114.31;;;10.07;89.76
7321;BME280;3701;49.346;8.798;2022-07-17T03:40:12;101118.47;;;10.11;89.94
7321;BME280;3701;49.346;8.798;2022-07-17T03:42:40;101129.06;;;10.26;90.53
7321;BME280;3701;49.346;8.798;2022-07-17T03:45:06;101133.38;;;10.27;89.92
7321;BME280;3701;49.346;8.798;2022-07-17T03:47:32;101124.41;;;10.33;90.08
7321;BME280;3701;49.346;8.798;2022-07-17T03:50:00;101139.72;;;10.40;89.55
7321;BME280;3701;49.346;8.798;2022-07-17T03:52:27;101122.25;;;10.41;89.11
7321;BME280;3701;49.346;8.798;2022-07-17T03:54:55;101126.31;;;10.46;88.84
7321;BME280;3701;49.346;8.798;2022-07-17T03:57:20;101123.63;;;10.48;88.38
7321;BME280;3701;49.346;8.798;2022-07-17T03:59:48;101124.16;;;10.55;88.23
7321;BME280;3701;49.346;8.798;2022-07-17T04:02:13;101121.72;;;10.52;88.34
7321;BME280;3701;49.346;8.798;2022-07-17T04:04:39;101120.66;;;10.56;88.09
7321;BME280;3701;49.346;8.798;2022-07-17T04:07:04;101119.47;;;10.61;87.71
7321;BME280;3701;49.346;8.798;2022-07-17T04:09:52;101126.41;;;10.62;87.41
7321;BME280;3701;49.346;8.798;2022-07-17T04:12:19;101123.16;;;10.75;87.61
7321;BME280;3701;49.346;8.798;2022-07-17T04:14:48;101129.75;;;10.98;87.14
7321;BME280;3701;49.346;8.798;2022-07-17T04:17:14;101130.41;;;10.52;85.99
7321;BME280;3701;49.346;8.798;2022-07-17T04:19:42;101136.09;;;10.43;87.00
7321;BME280;3701;49.346;8.798;2022-07-17T04:22:09;101143.16;;;10.41;87.22
7321;BME280;3701;49.346;8.798;2022-07-17T04:24:35;101131.75;;;10.42;87.64
7321;BME280;3701;49.346;8.798;2022-07-17T04:27:00;101135.59;;;10.70;87.94
7321;BME280;3701;49.346;8.798;2022-07-17T04:29:25;101145.34;;;10.31;87.34
7321;BME280;3701;49.346;8.798;2022-07-17T04:31:51;101142.63;;;10.34;88.56
7321;BME280;3701;49.346;8.798;2022-07-17T04:34:19;101146.09;;;10.52;88.35
7321;BME280;3701;49.346;8.798;2022-07-17T04:36:44;101135.63;;;10.52;87.54
7321;BME280;3701;49.346;8.798;2022-07-17T04:39:12;101131.41;;;10.32;87.59
7321;BME280;3701;49.346;8.798;2022-07-17T04:41:37;101130.28;;;10.19;87.39
7321;BME280;3701;49.346;8.798;2022-07-17T04:44:02;101132.28;;;10.31;89.55
7321;BME280;3701;49.346;8.798;2022-07-17T04:46:28;101137.22;;;10.55;89.32
7321;BME280;3701;49.346;8.798;2022-07-17T04:48:55;101145.13;;;10.71;88.66
7321;BME280;3701;49.346;8.798;2022-07-17T04:51:25;101141.06;;;11.64;87.72
7321;BME280;3701;49.346;8.798;2022-07-17T04:53:50;101139.56;;;13.38;82.01
7321;BME280;3701;49.346;8.798;2022-07-17T04:56:16;101138.41;;;14.11;75.91
7321;BME280;3701;49.346;8.798;2022-07-17T04:58:44;101132.53;;;14.86;72.56
7321;BME280;3701;49.346;8.798;2022-07-17T05:01:11;101133.69;;;15.82;69.53
7321;BME280;3701;49.346;8.798;2022-07-17T05:03:36;101137.00;;;16.55;67.21
7321;BME280;3701;49.346;8.798;2022-07-17T05:06:03;101125.81;;;15.93;65.61
7321;BME280;3701;49.346;8.798;2022-07-17T05:08:28;101129.66;;;17.05;64.31
7321;BME280;3701;49.346;8.798;2022-07-17T05:10:58;101136.56;;;17.51;63.17
7321;BME280;3701;49.346;8.798;2022-07-17T05:13:26;101126.47;;;17.45;62.50
7321;BME280;3701;49.346;8.798;2022-07-17T05:15:54;101132.06;;;18.07;59.15
7321;BME280;3701;49.346;8.798;2022-07-17T05:18:21;101132.03;;;17.74;59.83
7321;BME280;3701;49.346;8.798;2022-07-17T05:20:46;101127.03;;;17.71;60.63
7321;BME280;3701;49.346;8.798;2022-07-17T05:23:12;101131.44;;;18.15;58.74
7321;BME280;3701;49.346;8.798;2022-07-17T05:25:37;101136.03;;;17.69;61.12
7321;BME280;3701;49.346;8.798;2022-07-17T05:28:03;101134.16;;;17.60;60.57
7321;BME280;3701;49.346;8.798;2022-07-17T05:30:29;101143.47;;;18.40;58.20
7321;BME280;3701;49.346;8.798;2022-07-17T05:32:54;101142.22;;;18.86;57.49
7321;BME280;3701;49.346;8.798;2022-07-17T05:35:22;101153.09;;;20.03;56.47
7321;BME280;3701;49.346;8.798;2022-07-17T05:37:48;101147.31;;;20.66;53.49
7321;BME280;3701;49.346;8.798;2022-07-17T05:40:18;101145.41;;;19.80;54.59
7321;BME280;3701;49.346;8.798;2022-07-17T05:42:47;101151.00;;;19.97;54.72
7321;BME280;3701;49.346;8.798;2022-07-17T05:45:12;101143.97;;;21.29;52.69
7321;BME280;3701;49.346;8.798;2022-07-17T05:47:37;101143.84;;;22.57;48.69
7321;BME280;3701;49.346;8.798;2022-07-17T05:50:03;101137.34;;;22.59;49.31
7321;BME280;3701;49.346;8.798;2022-07-17T05:52:29;101143.81;;;23.09;47.63
7321;BME280;3701;49.346;8.798;2022-07-17T05:54:57;101132.34;;;22.83;47.06
7321;BME280;3701;49.346;8.798;2022-07-17T05:57:25;101139.25;;;23.02;48.25
7321;BME280;3701;49.346;8.798;2022-07-17T05:59:50;101149.44;;;22.72;49.79
7321;BME280;3701;49.346;8.798;2022-07-17T06:02:15;101131.28;;;22.41;48.06
7321;BME280;3701;49.346;8.798;2022-07-17T06:04:45;101153.66;;;23.76;46.66
7321;BME280;3701;49.346;8.798;2022-07-17T06:07:13;101150.03;;;24.18;45.56
7321;BME280;3701;49.346;8.798;2022-07-17T06:09:38;101149.16;;;23.77;44.75
7321;BME280;3701;49.346;8.798;2022-07-17T06:12:04;101139.88;;;24.05;43.00
7321;BME280;3701;49.346;8.798;2022-07-17T06:14:29;101140.00;;;24.61;42.62
7321;BME280;3701;49.346;8.798;2022-07-17T06:16:57;101131.34;;;23.85;42.86
7321;BME280;3701;49.346;8.798;2022-07-17T06:19:22;101147.34;;;23.85;44.56
7321;BME280;3701;49.346;8.798;2022-07-17T06:21:48;101144.97;;;23.58;43.82
7321;BME280;3701;49.346;8.798;2022-07-17T06:24:14;101141.03;;;24.36;43.31
7321;BME280;3701;49.346;8.798;2022-07-17T06:26:39;101147.91;;;25.88;41.00
7321;BME280;3701;49.346;8.798;2022-07-17T06:29:07;101140.63;;;26.58;39.35
7321;BME280;3701;49.346;8.798;2022-07-17T06:31:35;101137.50;;;25.47;39.86
7321;BME280;3701;49.346;8.798;2022-07-17T06:34:02;101147.63;;;26.44;38.40
7321;BME280;3701;49.346;8.798;2022-07-17T06:36:30;101141.44;;;26.59;38.14
7321;BME280;3701;49.346;8.798;2022-07-17T06:38:56;101144.22;;;24.95;38.66
7321;BME280;3701;49.346;8.798;2022-07-17T06:41:21;101152.22;;;25.98;38.20
7321;BME280;3701;49.346;8.798;2022-07-17T06:43:49;101139.19;;;25.71;36.25
7321;BME280;3701;49.346;8.798;2022-07-17T06:46:17;101145.53;;;25.70;37.62
7321;BME280;3701;49.346;8.798;2022-07-17T06:48:44;101152.91;;;25.45;38.63
7321;BME280;3701;49.346;8.798;2022-07-17T06:51:10;101148.94;;;25.33;39.21
7321;BME280;3701;49.346;8.798;2022-07-17T06:53:35;101145.91;;;24.88;37.20
7321;BME280;3701;49.346;8.798;2022-07-17T06:56:00;101151.41;;;25.97;36.85
7321;BME280;3701;49.346;8.798;2022-07-17T06:58:26;101138.63;;;25.22;36.50
7321;BME280;3701;49.346;8.798;2022-07-17T07:00:51;101147.75;;;25.35;36.86
7321;BME280;3701;49.346;8.798;2022-07-17T07:03:17;101146.72;;;25.91;35.82
7321;BME280;3701;49.346;8.798;2022-07-17T07:05:42;101133.50;;;25.89;35.52
7321;BME280;3701;49.346;8.798;2022-07-17T07:08:10;101145.03;;;26.36;35.31
7321;BME280;3701;49.346;8.798;2022-07-17T07:10:35;101161.13;;;27.25;35.08
7321;BME280;3701;49.346;8.798;2022-07-17T07:13:03;101154.47;;;27.21;33.65
7321;BME280;3701;49.346;8.798;2022-07-17T07:15:30;101135.19;;;25.90;34.04
7321;BME280;3701;49.346;8.798;2022-07-17T07:17:58;101154.03;;;27.54;35.26
7321;BME280;3701;49.346;8.798;2022-07-17T07:20:23;101155.22;;;27.88;33.07
7321;BME280;3701;49.346;8.798;2022-07-17T07:22:49;101149.03;;;27.15;32.46
7321;BME280;3701;49.346;8.798;2022-07-17T07:25:16;101146.53;;;27.13;33.87
7321;BME280;3701;49.346;8.798;2022-07-17T07:27:44;101145.59;;;27.94;32.44
7321;BME280;3701;49.346;8.798;2022-07-17T07:30:10;101135.22;;;27.33;31.79
7321;BME280;3701;49.346;8.798;2022-07-17T07:32:37;101144.53;;;26.71;33.34
7321;BME280;3701;49.346;8.798;2022-07-17T07:35:07;101148.00;;;27.31;34.02
7321;BME280;3701;49.346;8.798;2022-07-17T07:37:35;101142.41;;;26.28;34.18
7321;BME280;3701;49.346;8.798;2022-07-17T07:40:05;101139.97;;;27.31;32.58
7321;BME280;3701;49.346;8.798;2022-07-17T07:42:33;101142.47;;;27.75;33.41
7321;BME280;3701;49.346;8.798;2022-07-17T07:45:01;101127.47;;;28.59;30.03
7321;BME280;3701;49.346;8.798;2022-07-17T07:47:26;101120.41;;;28.23;30.73
7321;BME280;3701;49.346;8.798;2022-07-17T07:49:51;101120.34;;;28.16;30.35
7321;BME280;3701;49.346;8.798;2022-07-17T07:52:17;101119.56;;;27.94;30.81
7321;BME280;3701;49.346;8.798;2022-07-17T07:54:43;101120.00;;;28.26;30.23
7321;BME280;3701;49.346;8.798;2022-07-17T07:57:08;101118.22;;;28.05;30.24
7321;BME280;3701;49.346;8.798;2022-07-17T07:59:36;101134.16;;;28.42;30.10
7321;BME280;3701;49.346;8.798;2022-07-17T08:02:03;101131.00;;;29.01;29.77
7321;BME280;3701;49.346;8.798;2022-07-17T08:04:31;101121.00;;;27.17;32.27
7321;BME280;3701;49.346;8.798;2022-07-17T08:06:56;101128.81;;;27.70;32.26
7321;BME280;3701;49.346;8.798;2022-07-17T08:09:24;101134.16;;;28.42;31.30
7321;BME280;3701;49.346;8.798;2022-07-17T08:11:49;101134.91;;;28.92;30.43
7321;BME280;3701;49.346;8.798;2022-07-17T08:14:17;101129.41;;;27.66;32.42
7321;BME280;3701;49.346;8.798;2022-07-17T08:16:45;101137.94;;;29.24;30.75
7321;BME280;3701;49.346;8.798;2022-07-17T08:19:10;101141.97;;;29.68;29.36
7321;BME280;3701;49.346;8.798;2022-07-17T08:21:36;101139.31;;;29.75;29.88
7321;BME280;3701;49.346;8.798;2022-07-17T08:24:04;101138.28;;;30.56;29.36
7321;BME280;3701;49.346;8.798;2022-07-17T08:26:29;101138.88;;;30.71;30.09
7321;BME280;3701;49.346;8.798;2022-07-17T08:28:57;101142.91;;;31.53;27.44
7321;BME280;3701;49.346;8.798;2022-07-17T08:31:22;101132.41;;;28.90;28.40
7321;BME280;3701;49.346;8.798;2022-07-17T08:33:48;101129.28;;;29.35;27.10
7321;BME280;3701;49.346;8.798;2022-07-17T08:36:13;101142.66;;;29.97;26.53
7321;BME280;3701;49.346;8.798;2022-07-17T08:38:38;101132.81;;;29.42;28.19
7321;BME280;3701;49.346;8.798;2022-07-17T08:41:04;101134.97;;;30.47;27.01
7321;BME280;3701;49.346;8.798;2022-07-17T08:43:29;101125.19;;;29.53;27.60
7321;BME280;3701;49.346;8.798;2022-07-17T08:45:55;101123.66;;;29.23;26.87
7321;BME280;3701;49.346;8.798;2022-07-17T08:48:23;101135.72;;;28.92;28.12
7321;BME280;3701;49.346;8.798;2022-07-17T08:50:53;101136.09;;;29.31;25.95
7321;BME280;3701;49.346;8.798;2022-07-17T08:53:21;101137.06;;;30.12;26.31
7321;BME280;3701;49.346;8.798;2022-07-17T08:55:47;101142.81;;;29.75;26.37
7321;BME280;3701;49.346;8.798;2022-07-17T08:58:17;101132.69;;;29.16;29.00
7321;BME280;3701;49.346;8.798;2022-07-17T09:00:42;101133.47;;;28.96;27.35
7321;BME280;3701;49.346;8.798;2022-07-17T09:03:10;101134.34;;;30.45;27.71
7321;BME280;3701;49.346;8.798;2022-07-17T09:05:38;101129.78;;;29.79;27.55
7321;BME280;3701;49.346;8.798;2022-07-17T09:08:08;101143.00;;;29.74;26.87
7321;BME280;3701;49.346;8.798;2022-07-17T09:10:46;101141.91;;;28.86;27.47
7321;BME280;3701;49.346;8.798;2022-07-17T09:13:24;101139.88;;;28.04;28.38
7321;BME280;3701;49.346;8.798;2022-07-17T09:15:56;101151.16;;;29.87;27.04
7321;BME280;3701;49.346;8.798;2022-07-17T09:18:24;101145.03;;;30.92;25.74
7321;BME280;3701;49.346;8.798;2022-07-17T09:20:55;101152.47;;;30.97;26.91
7321;BME280;3701;49.346;8.798;2022-07-17T09:23:23;101157.22;;;31.46;26.77
7321;BME280;3701;49.346;8.798;2022-07-17T09:25:55;101146.50;;;31.40;24.45
7321;BME280;3701;49.346;8.798;2022-07-17T09:28:24;101147.63;;;31.64;25.07
7321;BME280;3701;49.346;8.798;2022-07-17T09:30:52;101147.72;;;31.37;23.98
7321;BME280;3701;49.346;8.798;2022-07-17T09:33:20;101139.75;;;30.45;25.08
7321;BME280;3701;49.346;8.798;2022-07-17T09:35:50;101137.44;;;29.75;26.61
7321;BME280;3701;49.346;8.798;2022-07-17T09:41:15;101125.19;;;29.59;27.56
7321;BME280;3701;49.346;8.798;2022-07-17T09:46:22;101131.94;;;31.41;25.06
7321;BME280;3701;49.346;8.798;2022-07-17T09:48:53;101136.91;;;31.44;24.60
7321;BME280;3701;49.346;8.798;2022-07-17T09:51:29;101116.53;;;30.51;25.31
7321;BME280;3701;49.346;8.798;2022-07-17T09:54:02;101112.84;;;29.92;25.27
7321;BME280;3701;49.346;8.798;2022-07-17T09:56:32;101120.28;;;29.83;26.32
7321;BME280;3701;49.346;8.798;2022-07-17T09:59:02;101122.69;;;29.44;25.85
7321;BME280;3701;49.346;8.798;2022-07-17T10:01:28;101126.22;;;29.65;26.06
7321;BME280;3701;49.346;8.798;2022-07-17T10:03:53;101137.88;;;29.72;26.76
7321;BME280;3701;49.346;8.798;2022-07-17T10:06:25;101134.75;;;30.55;26.34
7321;BME280;3701;49.346;8.798;2022-07-17T10:08:52;101138.50;;;30.28;26.44
7321;BME280;3701;49.346;8.798;2022-07-17T10:11:22;101137.97;;;30.84;26.22
7321;BME280;3701;49.346;8.798;2022-07-17T10:13:52;101128.69;;;30.80;24.77
7321;BME280;3701;49.346;8.798;2022-07-17T10:16:31;101133.00;;;30.81;25.00
7321;BME280;3701;49.346;8.798;2022-07-17T10:18:57;101129.19;;;29.97;26.27
7321;BME280;3701;49.346;8.798;2022-07-17T10:21:25;101122.88;;;28.88;28.05
7321;BME280;3701;49.346;8.798;2022-07-17T10:26:42;101133.13;;;30.01;26.32
7321;BME280;3701;49.346;8.798;2022-07-17T10:31:55;101121.69;;;30.52;24.95
7321;BME280;3701;49.346;8.798;2022-07-17T10:42:58;101121.31;;;30.15;25.15
7321;BME280;3701;49.346;8.798;2022-07-17T10:45:44;101131.47;;;30.00;25.67
7321;BME280;3701;49.346;8.798;2022-07-17T10:48:21;101121.91;;;28.61;26.49
7321;BME280;3701;49.346;8.798;2022-07-17T10:50:54;101127.66;;;28.92;26.58
7321;BME280;3701;49.346;8.798;2022-07-17T10:53:38;101119.53;;;28.16;27.25
7321;BME280;3701;49.346;8.798;2022-07-17T10:56:07;101128.91;;;27.98;27.23
7321;BME280;3701;49.346;8.798;2022-07-17T10:58:40;101131.16;;;29.41;25.96
7321;BME280;3701;49.346;8.798;2022-07-17T11:01:20;101135.38;;;29.64;25.89
7321;BME280;3701;49.346;8.798;2022-07-17T11:03:58;101138.72;;;29.86;25.49
7321;BME280;3701;49.346;8.798;2022-07-17T11:09:06;101127.19;;;29.24;26.15
7321;BME280;3701;49.346;8.798;2022-07-17T11:11:50;101126.03;;;30.53;24.74
7321;BME280;3701;49.346;8.798;2022-07-17T11:16:51;101122.91;;;30.70;25.38
7321;BME280;3701;49.346;8.798;2022-07-17T11:19:35;101123.56;;;30.45;25.31
7321;BME280;3701;49.346;8.798;2022-07-17T11:22:07;101118.00;;;29.87;27.06
7321;BME280;3701;49.346;8.798;2022-07-17T11:27:04;101121.72;;;31.43;24.19
7321;BME280;3701;49.346;8.798;2022-07-17T11:29:29;101112.78;;;30.52;24.63
7321;BME280;3701;49.346;8.798;2022-07-17T11:31:57;101119.91;;;30.91;25.41
7321;BME280;3701;49.346;8.798;2022-07-17T11:34:26;101105.56;;;29.86;24.71
7321;BME280;3701;49.346;8.798;2022-07-17T11:36:58;101117.34;;;30.25;25.68
7321;BME280;3701;49.346;8.798;2022-07-17T11:39:35;101118.16;;;29.72;26.21
7321;BME280;3701;49.346;8.798;2022-07-17T11:42:01;101109.34;;;30.83;25.04
7321;BME280;3701;49.346;8.798;2022-07-17T11:44:29;101117.13;;;31.18;25.50
7321;BME280;3701;49.346;8.798;2022-07-17T11:46:57;101102.41;;;31.78;23.25
7321;BME280;3701;49.346;8.798;2022-07-17T11:49:33;101075.78;;;30.72;24.33
7321;BME280;3701;49.346;8.798;2022-07-17T11:52:14;101088.75;;;31.41;24.77
7321;BME280;3701;49.346;8.798;2022-07-17T11:54:53;101071.91;;;31.77;23.05
7321;BME280;3701;49.346;8.798;2022-07-17T11:57:27;101077.97;;;31.34;23.20
7321;BME280;3701;49.346;8.798;2022-07-17T12:00:05;101070.13;;;30.87;23.73
7321;BME280;3701;49.346;8.798;2022-07-17T12:02:31;101064.50;;;29.57;25.72
7321;BME280;3701;49.346;8.798;2022-07-17T12:05:00;101072.63;;;29.83;25.60
7321;BME280;3701;49.346;8.798;2022-07-17T12:07:41;101071.16;;;30.14;24.66
7321;BME280;3701;49.346;8.798;2022-07-17T12:10:19;101054.59;;;29.64;24.94
7321;BME280;3701;49.346;8.798;2022-07-17T12:13:05;101061.84;;;30.10;24.08
7321;BME280;3701;49.346;8.798;2022-07-17T12:18:07;101064.97;;;29.60;25.03
7321;BME280;3701;49.346;8.798;2022-07-17T12:20:43;101069.31;;;29.95;24.98
7321;BME280;3701;49.346;8.798;2022-07-17T12:23:09;101060.19;;;29.56;24.91
7321;BME280;3701;49.346;8.798;2022-07-17T12:25:35;101061.25;;;29.88;24.74
7321;BME280;3701;49.346;8.798;2022-07-17T12:28:02;101061.50;;;30.65;24.69
7321;BME280;3701;49.346;8.798;2022-07-17T12:30:32;101065.34;;;30.89;23.78
7321;BME280;3701;49.346;8.798;2022-07-17T12:32:58;101059.91;;;31.03;24.74
7321;BME280;3701;49.346;8.798;2022-07-17T12:35:26;101058.47;;;30.42;24.59
7321;BME280;3701;49.346;8.798;2022-07-17T12:37:52;101049.25;;;30.69;24.61
7321;BME280;3701;49.346;8.798;2022-07-17T12:40:17;101063.13;;;30.73;25.27
7321;BME280;3701;49.346;8.798;2022-07-17T12:42:43;101063.41;;;31.42;24.33
7321;BME280;3701;49.346;8.798;2022-07-17T12:45:08;101053.66;;;31.73;23.27
7321;BME280;3701;49.346;8.798;2022-07-17T12:47:35;101054.84;;;31.77;23.77
7321;BME280;3701;49.346;8.798;2022-07-17T12:50:00;101048.25;;;31.73;23.80
7321;BME280;3701;49.346;8.798;2022-07-17T12:52:30;101050.50;;;31.76;23.64
7321;BME280;3701;49.346;8.798;2022-07-17T12:54:58;101044.44;;;31.99;23.27
7321;BME280;3701;49.346;8.798;2022-07-17T12:57:24;101037.00;;;31.94;23.69
7321;BME280;3701;49.346;8.798;2022-07-17T12:59:52;101029.00;;;31.87;22.72
7321;BME280;3701;49.346;8.798;2022-07-17T13:02:20;101035.88;;;32.09;24.08
7321;BME280;3701;49.346;8.798;2022-07-17T13:04:45;101040.13;;;31.98;24.58
7321;BME280;3701;49.346;8.798;2022-07-17T13:07:11;101035.53;;;31.98;23.55
7321;BME280;3701;49.346;8.798;2022-07-17T13:09:36;101030.47;;;32.09;23.29
7321;BME280;3701;49.346;8.798;2022-07-17T13:12:02;101029.53;;;31.96;22.75
7321;BME280;3701;49.346;8.798;2022-07-17T13:14:27;101022.03;;;31.98;22.81
7321;BME280;3701;49.346;8.798;2022-07-17T13:16:53;101024.81;;;31.66;24.12
7321;BME280;3701;49.346;8.798;2022-07-17T13:19:18;101015.44;;;31.69;22.30
7321;BME280;3701;49.346;8.798;2022-07-17T13:21:44;101018.56;;;31.91;23.10
7321;BME280;3701;49.346;8.798;2022-07-17T13:24:10;101018.97;;;31.69;22.75
7321;BME280;3701;49.346;8.798;2022-07-17T13:26:36;101017.06;;;31.20;23.61
7321;BME280;3701;49.346;8.798;2022-07-17T13:29:04;101012.97;;;30.72;24.44
7321;BME280;3701;49.346;8.798;2022-07-17T13:31:29;101007.31;;;30.21;25.14
7321;BME280;3701;49.346;8.798;2022-07-17T13:33:57;101022.94;;;30.65;25.69
7321;BME280;3701;49.346;8.798;2022-07-17T13:36:22;101022.88;;;31.48;24.28
7321;BME280;3701;49.346;8.798;2022-07-17T13:38:48;101017.63;;;31.60;24.49
7321;BME280;3701;49.346;8.798;2022-07-17T13:41:13;101011.63;;;31.26;24.29
7321;BME280;3701;49.346;8.798;2022-07-17T13:43:39;101002.50;;;31.53;22.39